createdAt,value
2019-04-04T00:01:35.035Z,13.80
2019-04-04T00:04:06.414Z,13.53
2019-04-04T00:06:38.110Z,13.13
2019-04-04T00:09:11.630Z,13.23
2019-04-04T00:11:42.627Z,13.60
2019-04-04T00:14:14.433Z,14.17
2019-04-04T00:16:46.759Z,13.40
2019-04-04T00:19:19.255Z,13.97
2019-04-04T00:21:50.720Z,13.87
2019-04-04T00:24:22.312Z,12.90
2019-04-04T00:26:53.667Z,13.60
2019-04-04T00:29:25.894Z,14.43
2019-04-04T00:31:58.995Z,13.83
2019-04-04T00:34:30.407Z,13.70
2019-04-04T00:37:04.401Z,14.03
2019-04-04T00:39:35.241Z,13.97
2019-04-04T00:42:10.330Z,13.33
2019-04-04T00:44:42.065Z,14.43
2019-04-04T00:47:14.062Z,13.13
2019-04-04T00:49:45.935Z,13.73
2019-04-04T00:52:17.448Z,13.27
2019-04-04T00:54:49.121Z,13.80
2019-04-04T00:57:21.232Z,14.33
2019-04-04T00:59:56.180Z,14.43
2019-04-04T01:02:27.985Z,13.10
2019-04-04T01:05:01.304Z,13.57
2019-04-04T01:07:33.946Z,14.40
2019-04-04T01:10:07.651Z,12.53
2019-04-04T01:12:38.988Z,13.23
2019-04-04T01:15:10.823Z,13.47
2019-04-04T01:17:42.423Z,15.60
2019-04-04T01:20:14.335Z,14.57
2019-04-04T01:22:46.680Z,13.37
2019-04-04T01:25:18.187Z,11.43
2019-04-04T01:27:49.455Z,11.20
2019-04-04T01:30:21.792Z,11.00
2019-04-04T01:32:53.357Z,9.83
2019-04-04T01:35:25.061Z,9.50
2019-04-04T01:38:03.421Z,8.73
2019-04-04T01:40:35.200Z,7.83
2019-04-04T01:43:08.878Z,7.20
2019-04-04T01:45:39.923Z,8.20
2019-04-04T01:48:11.227Z,7.43
2019-04-04T01:50:42.692Z,7.83
2019-04-04T01:53:14.852Z,6.97
2019-04-04T01:55:46.994Z,6.60
2019-04-04T01:58:18.644Z,5.80
2019-04-04T02:00:50.045Z,5.90
2019-04-04T02:03:22.675Z,5.23
2019-04-04T02:05:58.117Z,3.97
2019-04-04T02:08:31.377Z,4.03
2019-04-04T02:11:05.238Z,3.53
2019-04-04T02:13:35.684Z,3.33
2019-04-04T02:16:07.314Z,2.90
2019-04-04T02:18:38.533Z,2.90
2019-04-04T02:21:10.350Z,3.00
2019-04-04T02:23:41.468Z,2.87
2019-04-04T02:26:12.748Z,2.73
2019-04-04T02:28:44.242Z,3.10
2019-04-04T02:31:15.905Z,2.73
2019-04-04T02:33:47.469Z,2.83
2019-04-04T02:36:18.803Z,2.83
2019-04-04T02:39:07.162Z,2.23
2019-04-04T02:41:39.254Z,2.30
2019-04-04T02:44:13.926Z,2.80
2019-04-04T02:46:45.829Z,2.43
2019-04-04T02:49:17.635Z,2.00
2019-04-04T02:51:48.767Z,2.47
2019-04-04T02:54:24.170Z,2.70
2019-04-04T02:56:53.623Z,2.53
2019-04-04T02:59:24.924Z,1.90
2019-04-04T03:01:56.601Z,2.37
2019-04-04T03:04:28.383Z,2.33
2019-04-04T03:06:59.582Z,2.27
2019-04-04T03:09:31.332Z,2.50
2019-04-04T03:12:02.748Z,2.50
2019-04-04T03:14:37.428Z,3.80
2019-04-04T03:17:08.940Z,3.23
2019-04-04T03:19:43.790Z,2.87
2019-04-04T03:22:15.241Z,4.13
2019-04-04T03:24:46.609Z,3.73
2019-04-04T03:27:17.877Z,2.87
2019-04-04T03:29:49.778Z,2.27
2019-04-04T03:32:21.390Z,3.07
2019-04-04T03:34:52.758Z,2.87
2019-04-04T03:37:24.100Z,2.83
2019-04-04T03:39:55.499Z,2.47
2019-04-04T03:42:27.653Z,2.77
2019-04-04T03:44:59.200Z,2.80
2019-04-04T03:47:30.529Z,2.93
2019-04-04T03:50:01.991Z,2.60
2019-04-04T03:52:33.924Z,2.30
2019-04-04T03:55:06.500Z,2.40
2019-04-04T03:57:39.545Z,2.40
2019-04-04T04:00:11.378Z,2.07
2019-04-04T04:02:42.637Z,2.47
2019-04-04T04:05:26.828Z,2.43
2019-04-04T04:07:59.472Z,2.50
2019-04-04T04:10:33.322Z,2.87
2019-04-04T04:13:03.775Z,2.23
2019-04-04T04:15:35.331Z,2.40
2019-04-04T04:18:09.007Z,2.57
2019-04-04T04:20:40.644Z,2.73
2019-04-04T04:23:12.161Z,2.63
2019-04-04T04:25:45.907Z,2.30
2019-04-04T04:28:19.737Z,2.60
2019-04-04T04:30:50.340Z,2.47
2019-04-04T04:33:21.591Z,2.23
2019-04-04T04:35:53.649Z,3.00
2019-04-04T04:38:26.876Z,2.83
2019-04-04T04:40:58.259Z,2.10
2019-04-04T04:43:33.667Z,2.27
2019-04-04T04:46:09.137Z,3.10
2019-04-04T04:48:43.456Z,3.20
2019-04-04T04:51:15.658Z,3.30
2019-04-04T04:53:48.238Z,3.33
2019-04-04T04:56:20.170Z,3.43
2019-04-04T04:58:51.757Z,3.40
2019-04-04T05:01:23.057Z,4.70
2019-04-04T05:03:56.507Z,3.70
2019-04-04T05:06:28.488Z,2.57
2019-04-04T05:09:00.597Z,2.93
2019-04-04T05:11:34.409Z,2.87
2019-04-04T05:14:05.962Z,3.03
2019-04-04T05:16:37.902Z,2.50
2019-04-04T05:19:19.009Z,3.63
2019-04-04T05:21:54.696Z,3.03
2019-04-04T05:24:27.987Z,3.50
2019-04-04T05:26:59.823Z,3.30
2019-04-04T05:29:35.529Z,3.30
2019-04-04T05:32:07.447Z,3.53
2019-04-04T05:34:39.230Z,4.00
2019-04-04T05:37:12.720Z,3.87
2019-04-04T05:39:47.030Z,3.27
2019-04-04T05:42:18.798Z,3.30
2019-04-04T05:44:50.339Z,3.27
2019-04-04T05:47:23.973Z,3.27
2019-04-04T05:49:55.320Z,3.43
2019-04-04T05:52:28.288Z,3.33
2019-04-04T05:54:59.839Z,3.37
2019-04-04T05:57:30.862Z,2.70
2019-04-04T06:00:03.660Z,3.07
2019-04-04T06:02:38.523Z,2.40
2019-04-04T06:05:10.501Z,2.60
2019-04-04T06:07:42.437Z,3.67
2019-04-04T06:10:18.112Z,3.30
2019-04-04T06:12:47.575Z,3.07
2019-04-04T06:15:18.966Z,3.13
2019-04-04T06:17:50.738Z,2.50
2019-04-04T06:20:25.414Z,2.67
2019-04-04T06:22:56.688Z,3.10
2019-04-04T06:25:27.877Z,3.30
2019-04-04T06:27:59.222Z,2.67
2019-04-04T06:30:42.650Z,3.13
2019-04-04T06:33:04.889Z,3.30
2019-04-04T06:35:39.546Z,3.33
2019-04-04T06:38:09.908Z,4.20
2019-04-04T06:40:41.092Z,5.20
2019-04-04T06:43:12.605Z,5.73
2019-04-04T06:45:50.875Z,5.30
2019-04-04T06:48:22.193Z,4.83
2019-04-04T06:50:53.493Z,5.80
2019-04-04T06:53:25.044Z,5.53
2019-04-04T06:55:58.176Z,5.47
2019-04-04T06:58:29.043Z,6.00
2019-04-04T07:01:01.512Z,5.17
2019-04-04T07:03:35.241Z,5.40
2019-04-04T07:06:10.206Z,4.97
2019-04-04T07:08:45.138Z,4.43
2019-04-04T07:11:21.521Z,5.50
2019-04-04T07:13:50.946Z,5.30
2019-04-04T07:16:22.120Z,6.20
2019-04-04T07:18:53.664Z,6.23
2019-04-04T07:21:25.388Z,6.27
2019-04-04T07:24:00.109Z,6.87
2019-04-04T07:26:31.891Z,6.87
2019-04-04T07:29:04.214Z,6.07
2019-04-04T07:31:38.343Z,6.77
2019-04-04T07:34:09.127Z,6.60
2019-04-04T07:36:40.432Z,7.43
2019-04-04T07:39:12.540Z,8.50
2019-04-04T07:41:46.572Z,7.33
2019-04-04T07:44:18.314Z,7.47
2019-04-04T07:46:51.545Z,8.13
2019-04-04T07:49:25.668Z,9.60
2019-04-04T07:52:03.066Z,8.47
2019-04-04T07:54:38.036Z,10.43
2019-04-04T07:57:17.305Z,9.13
2019-04-04T07:59:50.178Z,9.93
2019-04-04T08:02:21.741Z,8.97
2019-04-04T08:04:54.431Z,8.83
2019-04-04T08:07:27.806Z,8.73
2019-04-04T08:09:59.200Z,8.47
2019-04-04T08:12:32.352Z,8.30
2019-04-04T08:15:03.718Z,7.57
2019-04-04T08:17:35.589Z,8.10
2019-04-04T08:20:07.028Z,7.10
2019-04-04T08:22:39.811Z,8.53
2019-04-04T08:25:11.681Z,7.83
2019-04-04T08:27:43.387Z,7.90
2019-04-04T08:30:15.516Z,8.60
2019-04-04T08:32:49.604Z,8.13
2019-04-04T08:35:20.893Z,8.40
2019-04-04T08:37:54.031Z,8.83
2019-04-04T08:40:41.912Z,8.80
2019-04-04T08:43:17.029Z,9.17
2019-04-04T08:45:52.226Z,9.40
2019-04-04T08:48:24.791Z,8.87
2019-04-04T08:50:59.290Z,9.70
2019-04-04T08:53:40.137Z,9.70
2019-04-04T08:56:14.067Z,9.33
2019-04-04T08:58:47.128Z,9.40
2019-04-04T09:01:18.824Z,9.57
2019-04-04T09:03:53.878Z,9.67
2019-04-04T09:06:26.465Z,9.13
2019-04-04T09:09:03.139Z,10.53
2019-04-04T09:11:35.188Z,10.33
2019-04-04T09:14:06.750Z,10.33
2019-04-04T09:16:56.915Z,10.00
2019-04-04T09:19:26.951Z,10.53
2019-04-04T09:21:58.295Z,10.83
2019-04-04T09:24:29.558Z,10.47
2019-04-04T09:27:01.523Z,10.13
2019-04-04T09:29:32.841Z,10.43
2019-04-04T09:32:07.387Z,11.20
2019-04-04T09:34:44.886Z,11.17
2019-04-04T09:37:17.751Z,11.17
2019-04-04T09:39:49.424Z,10.97
2019-04-04T09:42:27.691Z,11.77
2019-04-04T09:45:03.984Z,12.20
2019-04-04T09:47:39.252Z,12.30
2019-04-04T09:50:11.464Z,12.70
2019-04-04T09:52:43.330Z,12.47
2019-04-04T09:55:19.219Z,13.40
2019-04-04T09:57:52.537Z,13.57
2019-04-04T10:00:33.479Z,13.93
2019-04-04T10:03:16.051Z,13.63
2019-04-04T10:05:52.164Z,13.30
2019-04-04T10:08:28.855Z,13.60
2019-04-04T10:11:00.587Z,12.93
2019-04-04T10:13:37.772Z,14.07
2019-04-04T10:16:09.449Z,13.70
2019-04-04T10:18:40.860Z,14.83
2019-04-04T10:21:17.852Z,15.13
2019-04-04T10:23:52.845Z,14.70
2019-04-04T10:26:26.160Z,14.40
2019-04-04T10:29:03.984Z,15.10
2019-04-04T10:31:37.772Z,14.20
2019-04-04T10:34:15.277Z,14.13
2019-04-04T10:36:54.548Z,14.73
2019-04-04T10:43:59.365Z,14.77
2019-04-04T10:47:23.902Z,14.30
2019-04-04T10:50:01.077Z,14.00
2019-04-04T10:52:37.162Z,15.50
2019-04-04T10:55:10.687Z,13.80
2019-04-04T10:57:46.322Z,14.37
2019-04-04T11:00:23.199Z,13.93
2019-04-04T11:02:56.976Z,15.63
2019-04-04T11:05:38.396Z,15.03
2019-04-04T11:08:39.245Z,14.77
2019-04-04T11:11:12.481Z,15.13
2019-04-04T11:13:55.211Z,14.43
2019-04-04T11:16:30.456Z,16.27
2019-04-04T11:19:03.100Z,15.93
2019-04-04T11:21:36.656Z,16.80
2019-04-04T11:24:13.233Z,16.63
2019-04-04T11:26:48.259Z,18.23
2019-04-04T11:29:23.706Z,17.43
2019-04-04T11:31:56.006Z,15.63
2019-04-04T11:34:28.494Z,18.27
2019-04-04T11:36:59.664Z,19.27
2019-04-04T11:39:31.132Z,16.50
2019-04-04T11:42:03.939Z,15.70
2019-04-04T11:44:35.715Z,16.93
2019-04-04T11:47:09.475Z,17.37
2019-04-04T11:49:41.239Z,17.40
2019-04-04T11:52:12.649Z,17.97
2019-04-04T11:55:03.183Z,18.33
2019-04-04T11:57:34.452Z,19.33
2019-04-04T12:00:07.590Z,20.87
2019-04-04T12:02:39.197Z,19.33
2019-04-04T12:05:14.664Z,18.67
2019-04-04T12:07:46.363Z,19.27
2019-04-04T12:10:20.252Z,18.57
2019-04-04T12:12:53.883Z,19.13
2019-04-04T12:15:28.169Z,18.10
2019-04-04T12:18:06.337Z,17.67
2019-04-04T12:20:45.551Z,17.93
2019-04-04T12:23:16.960Z,20.07
2019-04-04T12:25:48.130Z,20.50
2019-04-04T12:28:21.091Z,23.70
2019-04-04T12:30:52.819Z,23.40
2019-04-04T12:33:24.090Z,24.43
2019-04-04T12:35:59.270Z,25.07
2019-04-04T12:38:30.439Z,30.37
2019-04-04T12:41:09.641Z,29.33
2019-04-04T12:43:41.581Z,27.93
2019-04-04T12:46:14.332Z,30.57
2019-04-04T12:48:54.376Z,28.80
2019-04-04T12:51:31.154Z,29.53
2019-04-04T12:54:08.248Z,30.97
2019-04-04T12:56:44.638Z,30.83
2019-04-04T12:59:26.091Z,32.10
2019-04-04T13:01:58.288Z,29.27
2019-04-04T13:04:32.325Z,30.40
2019-04-04T13:07:06.532Z,30.27
2019-04-04T13:09:47.100Z,27.13
2019-04-04T13:12:31.826Z,28.43
2019-04-04T13:15:08.923Z,30.97
2019-04-04T13:17:46.454Z,27.90
2019-04-04T13:20:22.100Z,28.47
2019-04-04T13:22:57.695Z,28.27
2019-04-04T13:25:36.058Z,28.40
2019-04-04T13:28:10.196Z,28.00
2019-04-04T13:30:42.097Z,26.97
2019-04-04T13:33:16.386Z,29.70
2019-04-04T13:35:50.729Z,29.60
2019-04-04T13:38:30.720Z,29.63
2019-04-04T13:41:02.937Z,29.60
2019-04-04T13:43:42.230Z,29.80
2019-04-04T13:46:16.784Z,27.43
2019-04-04T13:48:50.427Z,29.93
2019-04-04T13:51:37.518Z,27.97
2019-04-04T13:54:18.349Z,30.87
2019-04-04T13:56:53.669Z,30.40
2019-04-04T13:59:35.786Z,29.73
2019-04-04T14:02:10.442Z,29.63
2019-04-04T14:04:42.712Z,26.63
2019-04-04T14:07:14.381Z,29.70
2019-04-04T14:09:48.731Z,29.10
2019-04-04T14:12:30.335Z,27.50
2019-04-04T14:15:00.754Z,28.13
2019-04-04T14:17:33.408Z,27.83
2019-04-04T14:20:12.750Z,25.43
2019-04-04T14:22:44.885Z,24.20
2019-04-04T14:25:19.628Z,25.60
2019-04-04T14:27:53.382Z,25.10
2019-04-04T14:30:26.309Z,23.20
2019-04-04T14:32:58.142Z,23.23
2019-04-04T14:35:30.140Z,22.57
2019-04-04T14:38:04.402Z,22.67
2019-04-04T14:40:45.155Z,23.17
2019-04-04T14:43:19.666Z,23.23
2019-04-04T14:45:51.100Z,23.27
2019-04-04T14:48:22.442Z,23.93
2019-04-04T14:50:53.759Z,22.73
2019-04-04T14:53:27.404Z,23.30
2019-04-04T14:55:58.625Z,23.17
2019-04-04T14:58:30.859Z,24.53
2019-04-04T15:01:05.608Z,23.83
2019-04-04T15:04:08.142Z,23.60
2019-04-04T15:07:16.366Z,22.80
2019-04-04T15:09:52.826Z,24.33
2019-04-04T15:12:31.426Z,22.80
2019-04-04T15:15:08.789Z,24.33
2019-04-04T15:17:49.528Z,24.23
2019-04-04T15:20:27.386Z,23.83
2019-04-04T15:23:01.792Z,25.03
2019-04-04T15:25:43.408Z,25.80
2019-04-04T15:28:15.324Z,23.90
2019-04-04T15:30:46.503Z,23.47
2019-04-04T15:33:18.411Z,23.50
2019-04-04T15:35:49.870Z,22.83
2019-04-04T15:38:27.631Z,23.07
2019-04-04T15:41:01.189Z,21.27
2019-04-04T15:43:40.804Z,22.33
2019-04-04T15:46:15.732Z,22.63
2019-04-04T15:48:47.690Z,22.37
2019-04-04T15:51:27.172Z,22.03
2019-04-04T15:54:01.769Z,21.60
2019-04-04T15:56:37.689Z,23.43
2019-04-04T15:59:28.701Z,21.80
2019-04-04T16:02:18.684Z,19.93
2019-04-04T16:04:55.097Z,19.60
2019-04-04T16:07:32.181Z,20.17
2019-04-04T16:10:14.524Z,20.57
2019-04-04T16:12:52.740Z,20.00
2019-04-04T16:15:29.533Z,19.83
2019-04-04T16:18:07.339Z,20.93
2019-04-04T16:20:42.740Z,21.97
2019-04-04T16:23:17.486Z,19.17
2019-04-04T16:25:49.287Z,20.40
2019-04-04T16:28:34.183Z,21.47
2019-04-04T16:31:12.243Z,23.13
2019-04-04T16:33:45.427Z,22.30
2019-04-04T16:36:21.202Z,24.67
2019-04-04T16:39:00.152Z,23.63
2019-04-04T16:41:37.456Z,24.10
2019-04-04T16:44:10.103Z,24.27
2019-04-04T16:46:45.343Z,23.70
2019-04-04T16:49:21.557Z,24.00
2019-04-04T16:52:07.318Z,24.20
2019-04-04T16:54:39.950Z,26.27
2019-04-04T16:57:11.615Z,25.13
2019-04-04T16:59:44.858Z,24.50
2019-04-04T17:02:19.803Z,26.43
2019-04-04T17:04:53.085Z,23.93
2019-04-04T17:07:31.376Z,24.43
2019-04-04T17:10:05.820Z,22.37
2019-04-04T17:12:41.611Z,24.47
2019-04-04T17:15:14.464Z,27.13
2019-04-04T17:17:49.287Z,25.60
2019-04-04T17:20:25.613Z,26.50
2019-04-04T17:22:59.740Z,25.50
2019-04-04T17:25:33.881Z,27.07
2019-04-04T17:28:06.813Z,27.23
2019-04-04T17:30:44.086Z,26.80
2019-04-04T17:33:24.235Z,28.57
2019-04-04T17:36:08.453Z,26.87
2019-04-04T17:38:42.581Z,28.63
2019-04-04T17:41:17.479Z,29.47
2019-04-04T17:43:57.798Z,28.07
2019-04-04T17:46:30.815Z,28.43
2019-04-04T17:49:04.343Z,29.47
2019-04-04T17:51:38.847Z,30.57
2019-04-04T17:57:10.967Z,29.97
2019-04-04T17:59:50.123Z,31.20
2019-04-04T18:02:23.991Z,34.13
2019-04-04T18:04:56.129Z,34.23
2019-04-04T18:07:35.888Z,34.03
2019-04-04T18:10:10.833Z,34.47
2019-04-04T18:12:49.561Z,33.73
2019-04-04T18:15:29.431Z,36.77
2019-04-04T18:18:06.660Z,34.60
2019-04-04T18:20:48.568Z,34.33
2019-04-04T18:23:23.815Z,38.17
2019-04-04T18:26:00.788Z,36.07
2019-04-04T18:28:34.982Z,36.73
2019-04-04T18:31:13.845Z,36.87
2019-04-04T18:33:49.468Z,35.43
2019-04-04T18:36:23.437Z,36.87
2019-04-04T18:39:05.802Z,38.20
2019-04-04T18:41:47.593Z,38.37
2019-04-04T18:44:24.093Z,38.80
2019-04-04T18:47:00.246Z,39.80
2019-04-04T18:49:41.926Z,36.47
2019-04-04T18:52:15.115Z,40.57
2019-04-04T18:54:50.090Z,37.87
2019-04-04T18:57:27.180Z,40.47
2019-04-04T19:00:00.128Z,39.40
2019-04-04T19:02:32.890Z,39.30
2019-04-04T19:05:13.938Z,38.93
2019-04-04T19:07:51.191Z,39.77
2019-04-04T19:10:29.567Z,40.50
2019-04-04T19:13:17.489Z,39.83
2019-04-04T19:15:53.568Z,38.33
2019-04-04T19:18:28.933Z,39.13
2019-04-04T19:21:05.288Z,39.80
2019-04-04T19:23:49.567Z,42.73
2019-04-04T19:26:36.496Z,40.47
2019-04-04T19:29:22.029Z,41.77
2019-04-04T19:32:00.041Z,41.63
2019-04-04T19:34:35.973Z,41.27
2019-04-04T19:37:08.714Z,43.20
2019-04-04T19:39:54.494Z,42.87
2019-04-04T19:42:30.281Z,44.80
2019-04-04T19:45:10.349Z,45.53
2019-04-04T19:47:46.106Z,44.87
2019-04-04T19:50:30.780Z,41.33
2019-04-04T19:53:10.784Z,41.23
2019-04-04T19:55:47.945Z,42.33
2019-04-04T19:58:28.431Z,42.47
2019-04-04T20:01:02.787Z,41.63
2019-04-04T20:03:36.646Z,42.00
2019-04-04T20:06:13.454Z,41.17
2019-04-04T20:09:00.341Z,41.67
2019-04-04T20:11:49.819Z,40.27
2019-04-04T20:14:22.066Z,39.10
2019-04-04T20:17:04.258Z,42.67
2019-04-04T20:19:41.059Z,41.77
2019-04-04T20:22:14.665Z,44.37
2019-04-04T20:24:52.512Z,44.50
2019-04-04T20:27:24.551Z,42.37
2019-04-04T20:29:58.251Z,42.33
2019-04-04T20:32:39.712Z,41.93
2019-04-04T20:35:31.706Z,41.90
2019-04-04T20:38:03.764Z,41.33
2019-04-04T20:40:36.773Z,44.03
2019-04-04T20:43:16.540Z,43.67
2019-04-04T20:45:49.331Z,44.70
2019-04-04T20:48:23.237Z,42.60
2019-04-04T20:50:54.821Z,41.70
2019-04-04T20:53:27.167Z,44.83
2019-04-04T20:56:05.748Z,42.27
2019-04-04T20:58:40.247Z,42.50
2019-04-04T21:01:17.131Z,45.03
2019-04-04T21:03:59.095Z,41.40
2019-04-04T21:06:35.312Z,40.27
2019-04-04T21:09:13.522Z,39.90
2019-04-04T21:11:50.285Z,39.60
2019-04-04T21:14:28.207Z,41.07
2019-04-04T21:17:01.461Z,39.63
2019-04-04T21:19:33.728Z,37.53
2019-04-04T21:22:05.718Z,37.33
2019-04-04T21:24:46.942Z,38.10
2019-04-04T21:27:24.344Z,37.03
2019-04-04T21:30:07.060Z,35.17
2019-04-04T21:32:47.835Z,35.67
2019-04-04T21:35:21.716Z,34.73
2019-04-04T21:37:54.974Z,32.73
2019-04-04T21:40:31.041Z,34.17
2019-04-04T21:43:08.456Z,32.57
2019-04-04T21:45:39.914Z,32.73
2019-04-04T21:48:19.513Z,33.20
2019-04-04T21:50:51.339Z,33.43
2019-04-04T21:53:25.203Z,31.53
2019-04-04T21:55:56.867Z,32.20
2019-04-04T21:58:28.021Z,32.77
2019-04-04T22:00:59.459Z,32.57
2019-04-04T22:03:32.404Z,33.53
2019-04-04T22:06:08.086Z,32.93
2019-04-04T22:08:39.667Z,32.63
2019-04-04T22:11:14.963Z,32.13
2019-04-04T22:13:48.082Z,32.07
2019-04-04T22:16:22.077Z,33.53
2019-04-04T22:18:56.293Z,32.00
2019-04-04T22:21:29.607Z,33.47
2019-04-04T22:24:01.579Z,32.63
2019-04-04T22:26:33.081Z,31.50
2019-04-04T22:29:07.874Z,31.87
2019-04-04T22:31:39.736Z,32.03
2019-04-04T22:34:11.153Z,32.40
2019-04-04T22:36:42.298Z,32.83
2019-04-04T22:39:13.482Z,31.63
2019-04-04T22:41:44.688Z,33.03
2019-04-04T22:44:20.442Z,33.37
2019-04-04T22:46:52.458Z,34.70
2019-04-04T22:49:27.541Z,34.50
2019-04-04T22:51:58.893Z,34.20
2019-04-04T22:54:30.350Z,33.63
2019-04-04T22:57:01.546Z,33.07
2019-04-04T22:59:32.548Z,33.87
2019-04-04T23:02:04.262Z,32.70
2019-04-04T23:04:38.761Z,32.80
2019-04-04T23:07:11.841Z,35.30
2019-04-04T23:09:43.455Z,36.17
2019-04-04T23:12:17.425Z,33.20
2019-04-04T23:14:52.228Z,34.90
2019-04-04T23:17:26.426Z,34.90
2019-04-04T23:20:02.794Z,35.90
2019-04-04T23:22:37.904Z,36.50
2019-04-04T23:25:09.997Z,35.87
2019-04-04T23:27:41.648Z,35.90
2019-04-04T23:30:13.070Z,36.67
2019-04-04T23:32:48.953Z,36.63
2019-04-04T23:35:20.697Z,39.27
2019-04-04T23:37:51.995Z,38.07
2019-04-04T23:40:24.609Z,36.90
2019-04-04T23:43:07.817Z,37.07
2019-04-04T23:45:41.901Z,38.47
2019-04-04T23:48:15.632Z,36.83
